首页
METAR-TAF:

METAR-TAF

机场 :

Ulukhaktok, 西北特區, 加拿大

纬度: 70-46N, 经度: 117-48W, 海拔: 36米

当前天气观测

该预报发布于4小时和29分钟前的01:00 UTC
风速9节,风向东转东北
温度 -24°C
湿度 69%
气压 1021 hPa
能見度: 24.1公里
少量云层高于1200英尺
少量云层高于1700英尺
多云层高于2100英尺

METAR: CYHI 160100Z 06009KT 15SM FEW012 FEW017 BKN021 M24/M28 A3015 RMK SC1SC1SC6 FRO CIG RAG SN/CVR TR LOOSE AFT 01 UTC LST OBS/NXT 161500Z SLP216

时间: 22:29 (05:29 UTC)

预报

该预报发布于10小时和51分钟前的18:38 UTC
预报有效从15日的 19点(UTC)到 16日的 01点(UTC)
风速6节,风向东北
能見度: 10公里
少量云层高于3000英尺
从 15日的 2100点(UTC)
风速6节,风向东北
能見度: 10公里
散云层高于2000英尺
短暂存在
从 15日的 21点(UTC)到 16日的 01点(UTC)
多云层高于2000英尺

TAF: CYHI 151838Z 1519/1601 04006KT P6SM FEW030 FM152100 05006KT P6SM SCT020 TEMPO 1521/1601 BKN020 RMK NXT FCST WILL BE ISSUED AT 161645Z

超过4000个机场的气象观测和天气预报(METAR&TAF报告)。

可查询的气象台以黄色和红色小点在地图上表示。

将鼠标移到小点上方,可查看气象台名称。

然后点击查看天气观测和预报。

如需切换地图:点击带黑十字的绿色按钮放大地图;点击带横线的绿色按钮缩小地图;或者点击绿色箭头查看邻近地区的地图。


METAR-TAF: